Terminal Aerodrome Forecast
Issued by NWS

Home | Current Version | Previous Version | Text Only | Print | Product List | Glossary On
Versions: 1 2 3 4 5 6 7 8 9 10 11 12 13 14 15 16 17 18 19 20 21 22 23 24 25 26 27 28 29 30 31 32
000
FTUS46 KEKA 210200 AAA
TAFCEC
TAF AMD
KCEC 210211Z 2102/2124 33012G20KT P6SM SKC
     FM210400 33006KT P6SM SCT006
     FM210600 VRB05KT 3SM BR OVC004
     FM210800 17004KT 1SM BR OVC002
     FM211000 VRB05KT 1/2SM FG VV002
     FM211600 VRB06KT 3SM BR BKN004
     FM211900 33011KT P6SM SCT006=

USA.gov is the U.S. government's official web portal to all federal, state and local government web resources and services.